Lower Hutt, New Zealand
Current Conditions -  °F | °C
As of 1:30 AM on Sunday 26 Oct 2014 (Local Time) from NZWN Reporting Station
Clear Clear  
Wind Chill: 54°   Ceiling: Unl
Heat Index: 54°   Visibility: 6mi
Dew Point: 45°   Wind: 28mph
Humidity: 72%   Direction: 350°N
Pressure: 29.97"   Gusts: 40mph
Location:  41.21°S, 174.9°E
Report Text: NZWN 251330Z AUTO 35024G35KT 9999 NCD 12/07 Q1015 NOSIG
Loading
Personal Weather Stations






























Interactive Weather Map
Tropical Storm Tracking
New forecast layout! Learn more

10-Day Weather Forecast

Advertisements
Track Severe Weather on mobile